Data for 02/21/2018

Time Sea-Level Adjusted Pressure Absolute Pressure Temperature Relative Humidity Dew Point   
(mb) (inHg) (mb) (inHg) (C) (F) (%) (C) (F)
00:05 1018 30.06 847 25.01 -18.3 -0.9 69 -22.6 -8.7
00:10 1018 30.06 847 25.01 -18.3 -0.9 69 -22.7 -8.8
00:15 1018 30.06 847 25.01 -18.3 -1 69 -22.7 -8.9
00:20 1018 30.06 847 25.01 -17.8 -0.1 68 -22.4 -8.4
00:25 1018 30.06 847 25.01 -17.5 0.4 66 -22.5 -8.6
00:30 1018 30.06 847 25.01 -17.8 0 66 -22.6 -8.8
00:35 1018 30.06 847 25.01 -18.2 -0.8 69 -22.7 -8.8
00:40 1018 30.06 847 25.01 -18.2 -0.8 68 -22.7 -8.9
00:45 1018 30.06 847 25.01 -18.3 -1 70 -22.5 -8.5
00:50 1018 30.06 847 25.01 -18.3 -0.9 70 -22.5 -8.5
00:55 1018 30.06 847 25.01 -17.9 -0.2 68 -22.4 -8.3
01:00 1018 30.06 847 25.01 -17.3 0.8 66 -22.2 -8
01:05 1018 30.06 848 25.04 -17.2 1.1 66 -22.1 -7.9
01:10 1018 30.06 848 25.04 -17.4 0.7 65 -22.4 -8.4
01:15 1018 30.06 848 25.04 -17.3 0.9 65 -22.4 -8.2
01:20 1018 30.06 848 25.04 -17.5 0.5 66 -22.4 -8.4
01:25 1018 30.06 848 25.04 -17.5 0.6 67 -22.2 -8
01:30 1018 30.06 848 25.04 -17.3 0.8 67 -22 -7.7
01:35 1018 30.06 848 25.04 -17.3 1 68 -21.8 -7.2
01:40 1018 30.06 848 25.04 -17.3 0.9 69 -21.7 -7.1
01:45 1018 30.06 848 25.04 -17.3 0.9 70 -21.5 -6.8
01:50 1018 30.06 848 25.04 -17.3 0.9 70 -21.5 -6.7
01:55 1018 30.06 848 25.04 -17.4 0.7 70 -21.5 -6.8
02:00 1018 30.06 848 25.04 -17.6 0.3 71 -21.6 -6.9
02:05 1018 30.06 848 25.04 -17.9 -0.2 72 -21.7 -7.1
02:10 1018 30.06 848 25.04 -18 -0.5 73 -21.8 -7.2
02:15 1018 30.06 848 25.04 -18 -0.4 74 -21.6 -6.9
02:20 1018 30.06 848 25.04 -17.9 -0.2 73 -21.5 -6.8
02:25 1018 30.06 848 25.04 -18 -0.4 74 -21.6 -6.8
02:30 1018 30.06 848 25.04 -17.9 -0.1 74 -21.4 -6.5
02:35 1018 30.06 848 25.04 -17.7 0.1 74 -21.2 -6.2
02:40 1018 30.06 848 25.04 -17.7 0.1 74 -21.3 -6.3
02:45 1018 30.06 848 25.04 -17.7 0.2 73 -21.4 -6.6
02:50 1018 30.06 848 25.04 -17.6 0.2 73 -21.4 -6.6
02:55 1018 30.06 848 25.04 -17.5 0.5 74 -21.1 -6
03:00 1018 30.06 848 25.04 -17.5 0.5 71 -21.6 -6.9
03:05 1018 30.06 848 25.04 -17.4 0.7 71 -21.5 -6.6
03:10 1018 30.06 848 25.04 -17.3 0.8 71 -21.4 -6.5
03:15 1018 30.06 848 25.04 -17.5 0.5 73 -21.2 -6.2
03:20 1018 30.06 848 25.04 -17.6 0.4 71 -21.6 -6.9
03:25 1018 30.06 848 25.04 -18.1 -0.5 72 -21.9 -7.4
03:30 1019 30.09 848 25.04 -18.5 -1.3 74 -22.1 -7.7
03:35 1019 30.09 848 25.04 -18.5 -1.3 77 -21.6 -6.8
03:40 1018 30.06 848 25.04 -18.2 -0.7 73 -21.9 -7.4
03:45 1018 30.06 848 25.04 -18.3 -0.9 74 -21.8 -7.3
03:50 1018 30.06 848 25.04 -18 -0.3 76 -21.2 -6.1
03:55 1018 30.06 848 25.04 -17.7 0.1 72 -21.7 -7
04:00 1018 30.06 848 25.04 -17.6 0.3 73 -21.4 -6.4
04:05 1018 30.06 848 25.04 -17.6 0.3 75 -21.1 -6
04:10 1018 30.06 848 25.04 -17.7 0.2 73 -21.5 -6.6
04:15 1018 30.06 848 25.04 -17.6 0.4 68 -22.1 -7.8
04:20 1018 30.06 848 25.04 -17 1.4 66 -21.9 -7.5
04:25 1018 30.06 848 25.04 -17.1 1.2 67 -21.8 -7.3
04:30 1018 30.06 848 25.04 -17.2 1.1 69 -21.6 -6.8
04:35 1018 30.06 848 25.04 -17.1 1.3 68 -21.6 -6.9
04:40 1018 30.06 848 25.04 -17 1.4 68 -21.5 -6.7
04:45 1018 30.06 848 25.04 -16.9 1.7 67 -21.7 -7
04:50 1018 30.06 848 25.04 -16.9 1.5 68 -21.5 -6.7
04:55 1018 30.06 848 25.04 -17 1.4 68 -21.6 -6.9
05:00 1018 30.06 848 25.04 -16.7 1.9 66 -21.6 -6.9
05:05 1018 30.06 848 25.04 -16.5 2.2 67 -21.4 -6.5
05:10 1018 30.06 847 25.01 -16.5 2.3 66 -21.6 -6.8
05:15 1018 30.06 847 25.01 -15.7 3.8 64 -21.1 -6
05:20 1018 30.06 847 25.01 -16.1 3 65 -21.2 -6.1
05:25 1018 30.06 847 25.01 -15.9 3.3 66 -20.9 -5.6
05:30 1018 30.06 847 25.01 -16.2 2.8 66 -21.2 -6.2
05:35 1018 30.06 848 25.04 -17 1.4 69 -21.4 -6.5
05:40 1018 30.06 847 25.01 -17.1 1.2 71 -21.1 -6.1
05:45 1018 30.06 847 25.01 -16.5 2.4 71 -20.6 -5.1
05:50 1018 30.06 847 25.01 -16.5 2.3 71 -20.6 -5.1
05:55 1018 30.06 847 25.01 -16.9 1.6 74 -20.6 -5
06:00 1018 30.06 847 25.01 -17.4 0.8 74 -20.9 -5.6
06:05 1018 30.06 847 25.01 -17.2 1 74 -20.8 -5.4
06:10 1018 30.06 847 25.01 -17.4 0.7 78 -20.4 -4.7
06:15 1018 30.06 847 25.01 -17.4 0.7 78 -20.4 -4.6
06:20 1018 30.06 847 25.01 -17.4 0.6 75 -20.9 -5.7
06:25 1018 30.06 847 25.01 -18 -0.3 75 -21.4 -6.5
06:30 1018 30.06 848 25.04 -18.1 -0.5 75 -21.5 -6.7
06:35 1018 30.06 848 25.04 -17.3 1 73 -21 -5.8
06:40 1018 30.06 848 25.04 -16.8 1.7 70 -21 -5.9
06:45 1018 30.06 848 25.04 -16.9 1.6 70 -21.1 -6
06:50 1018 30.06 848 25.04 -16.6 2.1 69 -21 -5.7
06:55 1018 30.06 848 25.04 -16.8 1.9 69 -21.1 -6
07:00 1018 30.06 848 25.04 -17 1.4 70 -21.3 -6.3
07:05 1018 30.06 848 25.04 -16.6 2.2 69 -21.1 -5.9
07:10 1018 30.06 848 25.04 -15.7 3.8 64 -21 -5.7
07:15 1018 30.06 848 25.04 -15.6 4 64 -20.9 -5.6
07:20 1018 30.06 848 25.04 -15.3 4.4 63 -20.9 -5.7
07:25 1018 30.06 848 25.04 -15.5 4 63 -21 -5.8
07:30 1018 30.06 848 25.04 -15.8 3.7 64 -21.1 -6
07:35 1018 30.06 848 25.04 -15.6 3.9 64 -20.9 -5.7
07:40 1019 30.09 848 25.04 -15.2 4.6 63 -20.7 -5.3
07:45 1019 30.09 848 25.04 -15 4.9 63 -20.7 -5.2
07:50 1018 30.06 848 25.04 -15.2 4.6 64 -20.6 -5
07:55 1018 30.06 848 25.04 -15.1 4.8 63 -20.6 -5
08:00 1018 30.06 848 25.04 -14.9 5.2 62 -20.7 -5.2
08:05 1018 30.06 848 25.04 -14.5 5.8 61 -20.5 -4.9
08:10 1018 30.06 848 25.04 -14.3 6.2 60 -20.4 -4.7
08:15 1018 30.06 848 25.04 -14.5 6 61 -20.4 -4.7
08:20 1018 30.06 848 25.04 -14 6.9 60 -20 -4.1
08:25 1018 30.06 848 25.04 -13.7 7.3 59 -20.1 -4.1
08:30 1018 30.06 848 25.04 -13.4 7.9 58 -20.1 -4.2
08:35 1018 30.06 847 25.01 -12.9 8.8 56 -19.9 -3.7
08:40 1018 30.06 848 25.04 -12.6 9.3 57 -19.5 -3.1
08:45 1018 30.06 848 25.04 -12.2 10.1 55 -19.4 -3
08:50 1018 30.06 848 25.04 -11.7 10.9 53 -19.5 -3.1
08:55 1018 30.06 847 25.01 -11.4 11.6 52 -19.3 -2.8
09:00 1018 30.06 847 25.01 -10.9 12.3 51 -19.1 -2.5
09:05 1018 30.06 847 25.01 -10.4 13.4 50 -18.9 -2.1
09:10 1018 30.06 847 25.01 -10.2 13.7 52 -18.4 -1.1
09:15 1018 30.06 847 25.01 -10.2 13.6 52 -18.4 -1.1
09:20 1018 30.06 848 25.04 -10.9 12.3 55 -18.3 -0.9
09:25 1018 30.06 848 25.04 -11.6 11.2 56 -18.7 -1.6
09:30 1018 30.06 848 25.04 -11.5 11.3 55 -18.8 -1.8
09:35 1018 30.06 847 25.01 -11.3 11.7 54 -18.9 -2.1
09:40 1018 30.06 847 25.01 -10.6 13 53 -18.4 -1
09:45 1018 30.06 847 25.01 -11.1 12.1 54 -18.6 -1.4
09:50 1018 30.06 847 25.01 -10.3 13.4 51 -18.6 -1.6
09:55 1018 30.06 847 25.01 -10.3 13.5 50 -18.9 -2
10:00 1018 30.06 847 25.01 -10.4 13.3 52 -18.5 -1.4
10:05 1018 30.06 847 25.01 -10 13.9 49 -18.9 -2
10:10 1018 30.06 847 25.01 -10.3 13.5 53 -18.2 -0.7
10:15 1018 30.06 847 25.01 -10.6 13 49 -19.3 -2.7
10:20 1018 30.06 847 25.01 -10.6 12.9 52 -18.6 -1.5
10:25 1018 30.06 847 25.01 -9.7 14.5 48 -18.9 -2
10:30 1018 30.06 847 25.01 -9.3 15.2 48 -18.6 -1.4
10:35 1018 30.06 847 25.01 -9.3 15.3 47 -18.6 -1.5
10:40 1018 30.06 847 25.01 -9.4 15 48 -18.7 -1.6
10:45 1018 30.06 847 25.01 -9.5 15 46 -19 -2.2
10:50 1018 30.06 847 25.01 -9.4 15.1 47 -18.8 -1.8
10:55 1018 30.06 847 25.01 -9.1 15.7 46 -18.6 -1.5
11:00 1018 30.06 847 25.01 -9.1 15.7 47 -18.4 -1
11:05 1018 30.06 847 25.01 -9.2 15.5 46 -18.7 -1.6
11:10 1018 30.06 847 25.01 -10.2 13.7 48 -19.3 -2.7
11:15 1018 30.06 847 25.01 -11 12.2 50 -19.4 -3
11:20 1018 30.06 847 25.01 -10.4 13.3 46 -19.9 -3.7
11:25 1018 30.06 847 25.01 -10.1 13.8 47 -19.6 -3.2
11:30 1018 30.06 847 25.01 -9.8 14.3 46 -19.4 -2.8
11:35 1018 30.06 847 25.01 -9 15.8 44 -19.1 -2.4
11:40 1018 30.06 847 25.01 -9.3 15.2 46 -18.9 -2
11:45 1018 30.06 847 25.01 -9.5 14.9 49 -18.4 -1
11:50 1018 30.06 847 25.01 -9.3 15.3 46 -18.9 -2.1
11:55 1018 30.06 847 25.01 -9.4 15.2 47 -18.7 -1.6
12:00 1018 30.06 847 25.01 -8.6 16.6 44 -18.7 -1.7
12:05 1018 30.06 847 25.01 -8.2 17.3 45 -18 -0.5
12:10 1018 30.06 847 25.01 -7.9 17.7 44 -18.2 -0.8
12:15 1018 30.06 847 25.01 -7.8 17.9 44 -18 -0.3
12:20 1018 30.06 847 25.01 -7.7 18.1 45 -17.8 -0.1
12:25 1018 30.06 847 25.01 -7.1 19.2 42 -18 -0.4
12:30 1018 30.06 847 25.01 -7.1 19.3 40 -18.5 -1.3
12:35 1018 30.06 847 25.01 -7.8 17.9 44 -18 -0.3
12:40 1018 30.06 847 25.01 -7.5 18.4 41 -18.7 -1.6
12:45 1017 30.03 847 25.01 -6.8 19.8 39 -18.5 -1.3
12:50 1017 30.03 847 25.01 -6.3 20.6 36 -19.1 -2.4
12:55 1017 30.03 847 25.01 -6.2 20.9 38 -18.5 -1.3
13:00 1017 30.03 847 25.01 -6.2 20.8 39 -17.9 -0.3
13:05 1017 30.03 847 25.01 -5.9 21.3 35 -19 -2.2
13:10 1017 30.03 846 24.98 -6.2 20.9 39 -17.9 -0.3
13:15 1017 30.03 846 24.98 -6 21.2 39 -17.7 0.1
13:20 1017 30.03 846 24.98 -6.4 20.5 38 -18.4 -1.1
13:25 1017 30.03 846 24.98 -6.4 20.5 37 -19 -2.2
13:30 1017 30.03 846 24.98 -5.5 22.1 35 -18.8 -1.9
13:35 1017 30.03 846 24.98 -4.9 23.1 33 -18.8 -1.8
13:40 1017 30.03 846 24.98 -4.4 24 34 -18 -0.3
13:45 1017 30.03 846 24.98 -4.4 24.1 33 -18.4 -1.2
13:50 1017 30.03 846 24.98 -4.9 23.1 38 -17.3 0.9
13:55 1017 30.03 846 24.98 -5.8 21.5 39 -17.6 0.4
14:00 1017 30.03 846 24.98 -5.3 22.5 37 -18 -0.4
14:05 1017 30.03 846 24.98 -4.9 23.2 37 -17.4 0.6
14:10 1017 30.03 846 24.98 -5.5 22.2 36 -18.3 -1
14:15 1017 30.03 846 24.98 -5.5 22.1 38 -17.8 0
14:20 1017 30.03 846 24.98 -4.8 23.3 36 -17.7 0.1
14:25 1017 30.03 846 24.98 -4.4 24 34 -18.1 -0.5
14:30 1017 30.03 846 24.98 -4.4 24 35 -17.9 -0.1
14:35 1017 30.03 846 24.98 -5.5 22.1 38 -17.7 0.1
14:40 1017 30.03 846 24.98 -4.5 23.9 35 -17.9 -0.1
14:45 1017 30.03 846 24.98 -4.2 24.5 34 -17.7 0.2
14:50 1017 30.03 846 24.98 -4.7 23.5 37 -17.4 0.6
14:55 1017 30.03 846 24.98 -5.5 22.1 38 -17.7 0.2
15:00 1017 30.03 846 24.98 -5.2 22.7 37 -17.8 -0.1
15:05 1017 30.03 846 24.98 -5.7 21.7 39 -17.6 0.3
15:10 1017 30.03 846 24.98 -5.7 21.7 39 -17.7 0.1
15:15 1017 30.03 846 24.98 -6.2 20.9 40 -17.9 -0.1
15:20 1017 30.03 846 24.98 -5.8 21.6 39 -17.7 0.1
15:25 1017 30.03 846 24.98 -5.1 22.8 36 -17.9 -0.2
15:30 1017 30.03 846 24.98 -5.5 22.1 37 -18 -0.5
15:35 1017 30.03 846 24.98 -4.7 23.5 37 -17.4 0.8
15:40 1017 30.03 846 24.98 -4.4 24 38 -16.8 1.8
15:45 1017 30.03 846 24.98 -4.5 24 36 -17.6 0.3
15:50 1017 30.03 846 24.98 -4.3 24.3 36 -17.4 0.7
15:55 1017 30.03 846 24.98 -4.4 24 36 -17.3 0.8
16:00 1017 30.03 846 24.98 -4.6 23.7 37 -17.2 1
16:05 1017 30.03 846 24.98 -4.9 23.2 39 -16.8 1.7
16:10 1017 30.03 846 24.98 -4.7 23.6 38 -17.1 1.2
16:15 1017 30.03 846 24.98 -4.9 23.1 37 -17.4 0.6
16:20 1017 30.03 846 24.98 -5.4 22.2 39 -17.2 1
16:25 1017 30.03 846 24.98 -5.4 22.2 40 -17 1.4
16:30 1017 30.03 846 24.98 -5.4 22.3 39 -17.4 0.7
16:35 1017 30.03 846 24.98 -6 21.2 41 -17.2 1
16:40 1017 30.03 846 24.98 -6.2 20.8 41 -17.4 0.7
16:45 1017 30.03 846 24.98 -6.6 20.2 43 -17.1 1.3
16:50 1017 30.03 846 24.98 -6.6 20.1 44 -17 1.4
16:55 1017 30.03 846 24.98 -6.8 19.8 43 -17.4 0.6
17:00 1017 30.03 846 24.98 -7 19.4 45 -17 1.4
17:05 1017 30.03 846 24.98 -7 19.3 46 -16.9 1.7
17:10 1017 30.03 846 24.98 -7.2 19 47 -16.6 2
17:15 1017 30.03 846 24.98 -7.4 18.7 47 -16.8 1.7
17:20 1017 30.03 846 24.98 -7.6 18.3 48 -16.8 1.7
17:25 1017 30.03 846 24.98 -7.8 17.9 51 -16.3 2.6
17:30 1017 30.03 846 24.98 -8.3 17 50 -17 1.4
17:35 1017 30.03 846 24.98 -8.6 16.6 49 -17.5 0.6
17:40 1017 30.03 846 24.98 -8.4 16.9 48 -17.6 0.4
17:45 1017 30.03 846 24.98 -8.3 17.1 49 -17.2 1
17:50 1017 30.03 846 24.98 -8.9 16 52 -17.1 1.2
17:55 1017 30.03 846 24.98 -9.4 15 52 -17.7 0.2
18:00 1017 30.03 846 24.98 -9.2 15.4 50 -17.7 0.1
18:05 1017 30.03 846 24.98 -9.1 15.7 49 -17.9 -0.2
18:10 1017 30.03 846 24.98 -9.1 15.7 52 -17.3 0.8
18:15 1017 30.03 846 24.98 -9.6 14.7 52 -17.7 0.1
18:20 1017 30.03 846 24.98 -9.8 14.4 53 -17.7 0.2
18:25 1017 30.03 846 24.98 -10 14 54 -17.6 0.3
18:30 1017 30.03 846 24.98 -9.8 14.3 53 -17.8 0
18:35 1017 30.03 846 24.98 -10 14 55 -17.5 0.5
18:40 1017 30.03 846 24.98 -10.4 13.3 60 -16.8 1.7
18:45 1017 30.03 846 24.98 -10.4 13.3 55 -17.7 0.1
18:50 1017 30.03 846 24.98 -9.9 14.2 54 -17.5 0.5
18:55 1017 30.03 846 24.98 -9.8 14.4 55 -17.2 1
19:00 1017 30.03 846 24.98 -9.4 15.2 54 -17.1 1.2
19:05 1017 30.03 846 24.98 -10.2 13.6 60 -16.7 2
19:10 1017 30.03 846 24.98 -11.5 11.4 63 -17.2 1.1
19:15 1017 30.03 846 24.98 -11.1 12 59 -17.5 0.4
19:20 1017 30.03 846 24.98 -10.9 12.4 59 -17.4 0.7
19:25 1017 30.03 846 24.98 -10.8 12.7 59 -17.3 0.8
19:30 1017 30.03 846 24.98 -10.7 12.7 65 -16.2 2.9
19:35 1017 30.03 846 24.98 -11.1 11.9 65 -16.5 2.3
19:40 1017 30.03 846 24.98 -11.6 11.1 68 -16.3 2.6
19:45 1017 30.03 846 24.98 -11.7 10.9 69 -16.4 2.5
19:50 1017 30.03 846 24.98 -12 10.4 71 -16.3 2.6
19:55 1017 30.03 846 24.98 -12 10.5 69 -16.5 2.3
20:00 1017 30.03 846 24.98 -11.7 11 67 -16.6 2.2
20:05 1017 30.03 846 24.98 -11.5 11.2 66 -16.6 2.1
20:10 1017 30.03 846 24.98 -11.3 11.7 65 -16.5 2.3
20:15 1017 30.03 846 24.98 -11 12.3 64 -16.5 2.3
20:20 1017 30.03 846 24.98 -11.3 11.8 65 -16.6 2.2
20:25 1017 30.03 846 24.98 -11.7 10.9 66 -16.8 1.8
20:30 1017 30.03 846 24.98 -11.6 11.2 66 -16.8 1.8
20:35 1017 30.03 846 24.98 -11.9 10.6 67 -16.8 1.7
20:40 1017 30.03 846 24.98 -12 10.5 66 -17 1.4
20:45 1017 30.03 846 24.98 -11.6 11.2 65 -16.9 1.5
20:50 1017 30.03 846 24.98 -11.3 11.7 64 -16.9 1.7
20:55 1017 30.03 846 24.98 -11.1 12.1 62 -17 1.4
21:00 1017 30.03 846 24.98 -11.1 12.1 62 -17 1.4
21:05 1017 30.03 846 24.98 -11.1 12 63 -16.7 1.9
21:10 1017 30.03 846 24.98 -11.3 11.6 63 -17 1.4
21:15 1017 30.03 846 24.98 -11.3 11.6 63 -17 1.4
21:20 1017 30.03 846 24.98 -11.7 11 65 -17.1 1.2
21:25 1017 30.03 846 24.98 -11.9 10.6 65 -17.2 1.1
21:30 1017 30.03 846 24.98 -11.6 11.1 64 -17.1 1.3
21:35 1017 30.03 846 24.98 -11.4 11.5 63 -17 1.3
21:40 1017 30.03 846 24.98 -11.4 11.4 64 -17 1.4
21:45 1017 30.03 846 24.98 -11.3 11.8 63 -17 1.5
21:50 1017 30.03 846 24.98 -11.4 11.5 63 -17.1 1.3
21:55 1017 30.03 846 24.98 -11.4 11.5 63 -17 1.3
22:00 1017 30.03 846 24.98 -11.5 11.3 64 -17 1.4
22:05 1017 30.03 846 24.98 -11.5 11.3 63 -17.2 1
22:10 1017 30.03 846 24.98 -11.9 10.6 65 -17.3 0.9
22:15 1017 30.03 846 24.98 -12.3 9.9 65 -17.5 0.5
22:20 1017 30.03 846 24.98 -12 10.5 64 -17.5 0.5
22:25 1017 30.03 846 24.98 -11.8 10.8 64 -17.3 0.9
22:30 1017 30.03 846 24.98 -11.5 11.3 62 -17.3 0.8
22:35 1017 30.03 846 24.98 -11.6 11.2 63 -17.2 1
22:40 1017 30.03 846 24.98 -11.6 11.1 63 -17.4 0.7
22:45 1017 30.03 846 24.98 -11.9 10.6 64 -17.4 0.8
22:50 1017 30.03 846 24.98 -12.3 9.9 65 -17.5 0.5
22:55 1017 30.03 846 24.98 -12.5 9.6 66 -17.6 0.4
23:00 1017 30.03 846 24.98 -12.6 9.3 66 -17.6 0.3
23:05 1017 30.03 846 24.98 -12.4 9.7 65 -17.7 0.2
23:10 1017 30.03 846 24.98 -12.5 9.5 66 -17.7 0.2
23:15 1017 30.03 846 24.98 -12.4 9.7 65 -17.7 0.2
23:20 1016 30 846 24.98 -12.6 9.2 66 -17.7 0.2
23:25 1016 30 846 24.98 -12.5 9.5 66 -17.7 0.2
23:30 1016 30 846 24.98 -12.5 9.6 65 -17.8 0
23:35 1016 30 846 24.98 -12.4 9.7 65 -17.8 0
23:40 1016 30 846 24.98 -12.5 9.6 64 -17.9 -0.2
23:45 1016 30 846 24.98 -12.4 9.7 63 -18 -0.4
23:50 1017 30.03 846 24.98 -12.2 10.1 63 -17.9 -0.3
23:55 1017 30.03 846 24.98 -11.8 10.7 62 -17.8 -0
24:00 1017 30.03 846 24.98 -11.7 10.9 61 -17.8 0